createdAt,value
2018-09-13T00:01:11.298Z,5.80
2018-09-13T00:03:39.818Z,5.83
2018-09-13T00:06:08.338Z,5.57
2018-09-13T00:08:36.865Z,5.80
2018-09-13T00:11:05.662Z,5.40
2018-09-13T00:13:34.235Z,5.43
2018-09-13T00:16:02.759Z,5.70
2018-09-13T00:18:31.305Z,5.40
2018-09-13T00:20:59.834Z,5.23
2018-09-13T00:23:28.403Z,5.60
2018-09-13T00:25:56.936Z,5.80
2018-09-13T00:28:26.262Z,5.77
2018-09-13T00:30:54.784Z,5.50
2018-09-13T00:33:23.340Z,5.27
2018-09-13T00:35:51.869Z,5.70
2018-09-13T00:38:20.433Z,6.03
2018-09-13T00:40:48.964Z,5.17
2018-09-13T00:43:17.510Z,4.80
2018-09-13T00:45:46.159Z,5.93
2018-09-13T00:48:14.717Z,7.73
2018-09-13T00:50:43.277Z,7.13
2018-09-13T00:53:11.833Z,6.73
2018-09-13T00:55:40.380Z,7.00
2018-09-13T00:58:08.942Z,7.47
2018-09-13T01:00:37.466Z,6.97
2018-09-13T01:03:06.889Z,6.87
2018-09-13T01:05:35.421Z,7.03
2018-09-13T01:08:03.983Z,6.77
2018-09-13T01:10:32.556Z,6.70
2018-09-13T01:13:01.140Z,6.53
2018-09-13T01:15:29.709Z,7.33
2018-09-13T01:17:58.256Z,7.90
2018-09-13T01:20:26.821Z,7.90
2018-09-13T01:22:55.353Z,7.93
2018-09-13T01:25:23.934Z,7.53
2018-09-13T01:27:52.465Z,7.43
2018-09-13T01:30:21.026Z,7.47
2018-09-13T01:32:49.559Z,7.57
2018-09-13T01:35:18.139Z,7.37
2018-09-13T01:37:46.670Z,7.40
2018-09-13T01:40:15.229Z,7.50
2018-09-13T01:42:43.761Z,7.53
2018-09-13T01:45:12.323Z,8.47
2018-09-13T01:47:40.837Z,7.93
2018-09-13T01:50:09.396Z,8.27
2018-09-13T01:52:37.924Z,8.50
2018-09-13T01:55:06.513Z,8.43
2018-09-13T01:57:35.040Z,8.27
2018-09-13T02:00:03.642Z,8.10
2018-09-13T02:02:32.223Z,9.07
2018-09-13T02:05:00.791Z,8.33
2018-09-13T02:07:29.446Z,7.50
2018-09-13T02:09:58.007Z,8.43
2018-09-13T02:12:26.569Z,8.20
2018-09-13T02:14:55.117Z,8.07
2018-09-13T02:17:23.638Z,7.90
2018-09-13T02:19:52.253Z,7.63
2018-09-13T02:22:20.781Z,8.73
2018-09-13T02:24:49.334Z,7.70
2018-09-13T02:27:17.862Z,8.60
2018-09-13T02:29:46.444Z,7.90
2018-09-13T02:32:14.972Z,8.17
2018-09-13T02:34:44.042Z,8.40
2018-09-13T02:37:12.625Z,8.87
2018-09-13T02:39:41.337Z,8.90
2018-09-13T02:42:09.989Z,10.03
2018-09-13T02:44:38.662Z,9.40
2018-09-13T02:47:07.199Z,8.50
2018-09-13T02:49:35.765Z,9.40
2018-09-13T02:52:04.314Z,9.17
2018-09-13T02:54:32.866Z,7.97
2018-09-13T02:57:01.385Z,8.67
2018-09-13T02:59:29.944Z,8.33
2018-09-13T03:01:58.462Z,8.87
2018-09-13T03:04:27.015Z,8.43
2018-09-13T03:06:55.570Z,9.10
2018-09-13T03:09:24.113Z,8.87
2018-09-13T03:11:52.712Z,9.00
2018-09-13T03:14:21.239Z,9.77
2018-09-13T03:16:49.799Z,9.17
2018-09-13T03:19:18.345Z,9.00
2018-09-13T03:21:46.989Z,9.33
2018-09-13T03:24:15.524Z,9.27
2018-09-13T03:26:44.130Z,9.23
2018-09-13T03:29:12.722Z,8.90
2018-09-13T03:31:41.281Z,9.20
2018-09-13T03:34:09.872Z,9.13
2018-09-13T03:36:38.432Z,9.80
2018-09-13T03:39:09.019Z,9.63
2018-09-13T03:41:37.578Z,9.17
2018-09-13T03:44:06.513Z,9.23
2018-09-13T03:46:35.417Z,9.23
2018-09-13T03:49:04.007Z,9.27
2018-09-13T03:51:32.584Z,9.23
2018-09-13T03:54:01.713Z,9.83
2018-09-13T03:56:30.270Z,9.57
2018-09-13T03:58:58.878Z,10.47
2018-09-13T04:01:27.492Z,9.70
2018-09-13T04:03:56.072Z,9.90
2018-09-13T04:06:24.701Z,8.47
2018-09-13T04:08:53.285Z,9.60
2018-09-13T04:11:21.892Z,9.00
2018-09-13T04:13:50.973Z,9.70
2018-09-13T04:16:19.659Z,10.67
2018-09-13T04:18:48.630Z,9.40
2018-09-13T04:21:17.241Z,9.83
2018-09-13T04:23:45.787Z,9.40
2018-09-13T04:26:14.609Z,10.37
2018-09-13T04:28:43.154Z,9.03
2018-09-13T04:31:11.708Z,10.20
2018-09-13T04:33:40.240Z,9.63
2018-09-13T04:36:08.839Z,9.13
2018-09-13T04:38:37.377Z,9.87
2018-09-13T04:41:06.816Z,10.67
2018-09-13T04:43:35.391Z,10.87
2018-09-13T04:46:04.078Z,10.90
2018-09-13T04:48:33.316Z,11.50
2018-09-13T04:51:02.237Z,11.57
2018-09-13T04:53:31.158Z,12.20
2018-09-13T04:55:59.753Z,11.13
2018-09-13T04:58:28.357Z,11.77
2018-09-13T05:00:56.934Z,11.97
2018-09-13T05:03:25.478Z,11.70
2018-09-13T05:05:54.062Z,11.13
2018-09-13T05:08:22.646Z,13.90
2018-09-13T05:10:51.242Z,12.10
2018-09-13T05:13:20.045Z,11.23
2018-09-13T05:15:50.716Z,11.73
2018-09-13T05:18:19.441Z,11.83
2018-09-13T05:20:48.037Z,12.03
2018-09-13T05:23:16.731Z,13.00
2018-09-13T05:25:45.400Z,12.90
2018-09-13T05:28:14.095Z,12.80
2018-09-13T05:30:42.717Z,12.33
2018-09-13T05:33:11.494Z,11.83
2018-09-13T05:35:40.078Z,14.13
2018-09-13T05:38:09.339Z,14.50
2018-09-13T05:40:38.749Z,16.40
2018-09-13T05:43:07.426Z,15.07
2018-09-13T05:45:36.053Z,14.77
2018-09-13T05:48:04.743Z,14.63
2018-09-13T05:50:33.457Z,13.70
2018-09-13T05:53:03.920Z,14.77
2018-09-13T05:55:37.040Z,16.20
2018-09-13T05:58:05.763Z,15.00
2018-09-13T06:00:34.549Z,17.60
2018-09-13T06:03:03.242Z,18.97
2018-09-13T06:05:31.829Z,17.80
2018-09-13T06:08:00.558Z,17.53
2018-09-13T06:10:29.179Z,17.83
2018-09-13T06:12:57.862Z,18.97
2018-09-13T06:15:26.506Z,17.80
2018-09-13T06:17:55.098Z,17.83
2018-09-13T06:20:23.671Z,16.43
2018-09-13T06:22:52.249Z,16.73
2018-09-13T06:25:20.818Z,18.77
2018-09-13T06:27:49.393Z,19.87
2018-09-13T06:30:17.937Z,18.37
2018-09-13T06:32:46.625Z,18.40
2018-09-13T06:35:15.202Z,18.50
2018-09-13T06:37:43.829Z,17.33
2018-09-13T06:40:13.290Z,17.73
2018-09-13T06:42:41.914Z,18.13
2018-09-13T06:45:10.580Z,18.20
2018-09-13T06:47:39.363Z,18.93
2018-09-13T06:50:08.166Z,18.70
2018-09-13T06:52:36.753Z,21.70
2018-09-13T06:55:05.630Z,21.83
2018-09-13T06:57:34.242Z,22.03
2018-09-13T07:00:03.015Z,21.47
2018-09-13T07:02:31.621Z,20.50
2018-09-13T07:05:00.188Z,19.47
2018-09-13T07:07:28.835Z,20.07
2018-09-13T07:09:57.550Z,18.87
2018-09-13T07:12:26.175Z,18.73
2018-09-13T07:14:54.805Z,17.67
2018-09-13T07:17:23.425Z,16.73
2018-09-13T07:19:51.968Z,17.47
2018-09-13T07:22:20.536Z,17.93
2018-09-13T07:24:49.080Z,17.17
2018-09-13T07:27:17.649Z,17.17
2018-09-13T07:29:46.270Z,18.13
2018-09-13T07:32:14.853Z,15.97
2018-09-13T07:34:43.397Z,16.83
2018-09-13T07:37:11.978Z,16.67
2018-09-13T07:39:40.595Z,16.20
2018-09-13T07:42:09.262Z,15.77
2018-09-13T07:44:37.865Z,15.93
2018-09-13T07:47:06.470Z,14.47
2018-09-13T07:49:35.254Z,15.10
2018-09-13T07:52:05.129Z,15.03
2018-09-13T07:54:33.680Z,14.47
2018-09-13T07:57:02.265Z,14.37
2018-09-13T07:59:30.813Z,13.20
2018-09-13T08:01:59.384Z,13.37
2018-09-13T08:04:27.934Z,14.43
2018-09-13T08:06:56.518Z,13.50
2018-09-13T08:09:25.106Z,13.23
2018-09-13T08:11:53.763Z,13.77
2018-09-13T08:14:22.200Z,11.70
2018-09-13T08:16:50.765Z,12.43
2018-09-13T08:19:19.278Z,12.53
2018-09-13T08:21:47.956Z,11.23
2018-09-13T08:24:16.366Z,11.53
2018-09-13T08:26:44.893Z,11.00
2018-09-13T08:29:13.459Z,11.50
2018-09-13T08:31:42.044Z,11.33
2018-09-13T08:34:10.650Z,11.23
2018-09-13T08:36:39.162Z,12.00
2018-09-13T08:39:09.987Z,11.00
2018-09-13T08:41:38.503Z,10.57
2018-09-13T08:44:07.066Z,10.03
2018-09-13T08:46:35.581Z,10.83
2018-09-13T08:49:04.139Z,10.93
2018-09-13T08:51:33.082Z,10.77
2018-09-13T08:54:01.779Z,11.27
2018-09-13T08:56:30.333Z,12.37
2018-09-13T08:58:58.951Z,11.63
2018-09-13T09:01:27.488Z,10.80
2018-09-13T09:03:56.049Z,11.17
2018-09-13T09:06:24.609Z,10.67
2018-09-13T09:08:53.309Z,11.60
2018-09-13T09:11:22.490Z,10.43
2018-09-13T09:13:51.194Z,10.60
2018-09-13T09:16:19.724Z,11.37
2018-09-13T09:18:48.300Z,11.17
2018-09-13T09:21:16.870Z,11.00
2018-09-13T09:23:45.501Z,10.97
2018-09-13T09:26:14.718Z,11.07
2018-09-13T09:28:44.312Z,11.80
2018-09-13T09:31:12.835Z,10.80
2018-09-13T09:33:41.500Z,10.97
2018-09-13T09:36:10.181Z,11.40
2018-09-13T09:38:38.756Z,11.80
2018-09-13T09:41:07.268Z,11.30
2018-09-13T09:43:38.683Z,10.33
2018-09-13T09:46:12.487Z,10.67
2018-09-13T09:48:42.212Z,10.70
2018-09-13T09:51:10.860Z,10.57
2018-09-13T09:53:39.439Z,10.33
2018-09-13T09:56:08.031Z,9.37
2018-09-13T09:58:36.562Z,9.20
2018-09-13T10:01:10.369Z,8.37
2018-09-13T10:03:45.724Z,9.93
2018-09-13T10:06:14.539Z,10.30
2018-09-13T10:08:43.162Z,10.30
2018-09-13T10:11:11.823Z,9.10
2018-09-13T10:13:40.595Z,10.33
2018-09-13T10:16:14.529Z,9.90
2018-09-13T10:18:45.325Z,9.23
2018-09-13T10:21:19.507Z,9.43
2018-09-13T10:23:53.350Z,9.53
2018-09-13T10:26:27.240Z,8.97
2018-09-13T10:29:01.160Z,9.27
2018-09-13T10:31:35.146Z,8.73
2018-09-13T10:34:09.012Z,8.80
2018-09-13T10:36:42.965Z,9.40
2018-09-13T10:39:16.707Z,8.60
2018-09-13T10:41:50.647Z,9.17
2018-09-13T10:44:24.497Z,8.60
2018-09-13T10:46:58.499Z,8.83
2018-09-13T10:49:32.425Z,8.10
2018-09-13T10:52:06.121Z,8.57
2018-09-13T10:54:39.637Z,8.07
2018-09-13T10:57:13.614Z,8.07
2018-09-13T10:59:42.560Z,8.50
2018-09-13T11:02:11.570Z,7.43
2018-09-13T11:04:40.506Z,8.20
2018-09-13T11:07:10.709Z,7.80
2018-09-13T11:09:39.561Z,7.67
2018-09-13T11:12:08.714Z,8.00
2018-09-13T11:14:42.652Z,7.83
2018-09-13T11:17:11.260Z,7.20
2018-09-13T11:19:39.821Z,7.33
2018-09-13T11:22:08.373Z,8.00
2018-09-13T11:24:37.087Z,7.90
2018-09-13T11:27:05.678Z,6.40
2018-09-13T11:29:34.385Z,7.07
2018-09-13T11:32:03.055Z,7.67
2018-09-13T11:34:31.718Z,6.70
2018-09-13T11:37:00.354Z,6.97
2018-09-13T11:39:28.979Z,7.20
2018-09-13T11:41:57.571Z,7.77
2018-09-13T11:44:26.348Z,6.97
2018-09-13T11:46:55.617Z,7.13
2018-09-13T11:49:25.065Z,6.77
2018-09-13T11:51:53.604Z,6.53
2018-09-13T11:54:22.947Z,7.03
2018-09-13T11:56:51.484Z,6.97
2018-09-13T11:59:20.049Z,6.70
2018-09-13T12:01:48.625Z,7.00
2018-09-13T12:04:17.874Z,6.97
2018-09-13T12:06:46.585Z,6.53
2018-09-13T12:09:15.865Z,6.97
2018-09-13T12:11:44.526Z,5.70
2018-09-13T12:14:13.180Z,6.37
2018-09-13T12:16:41.917Z,6.00
2018-09-13T12:19:10.757Z,6.13
2018-09-13T12:21:39.581Z,6.00
2018-09-13T12:24:09.141Z,6.37
2018-09-13T12:26:37.854Z,6.70
2018-09-13T12:29:06.683Z,5.97
2018-09-13T12:31:35.866Z,6.27
2018-09-13T12:34:04.890Z,6.20
2018-09-13T12:36:33.586Z,6.03
2018-09-13T12:39:02.453Z,6.27
2018-09-13T12:41:31.175Z,5.67
2018-09-13T12:44:00.774Z,6.20
2018-09-13T12:46:29.467Z,5.80
2018-09-13T12:48:58.242Z,5.70
2018-09-13T12:51:26.939Z,6.50
2018-09-13T12:53:55.493Z,5.87
2018-09-13T12:56:24.447Z,5.67
2018-09-13T12:58:53.708Z,5.77
2018-09-13T13:01:22.320Z,6.40
2018-09-13T13:03:51.301Z,6.10
2018-09-13T13:06:20.191Z,6.23
2018-09-13T13:08:49.116Z,5.67
2018-09-13T13:11:17.882Z,5.00
2018-09-13T13:13:46.711Z,5.07
2018-09-13T13:16:15.582Z,4.90
2018-09-13T13:18:44.809Z,5.10
2018-09-13T13:21:13.569Z,5.20
2018-09-13T13:23:42.129Z,4.60
2018-09-13T13:26:10.669Z,5.13
2018-09-13T13:28:39.354Z,6.07
2018-09-13T13:31:07.906Z,5.00
2018-09-13T13:33:36.461Z,5.53
2018-09-13T13:36:05.061Z,5.10
2018-09-13T13:38:33.594Z,4.73
2018-09-13T13:41:02.144Z,5.43
2018-09-13T13:43:30.684Z,5.10
2018-09-13T13:45:59.284Z,5.70
2018-09-13T13:48:28.053Z,5.80
2018-09-13T13:50:56.632Z,5.50
2018-09-13T13:53:25.131Z,5.17
2018-09-13T13:55:53.705Z,5.40
2018-09-13T13:58:25.133Z,5.73
2018-09-13T14:00:53.661Z,5.30
2018-09-13T14:03:22.305Z,5.47
2018-09-13T14:05:50.872Z,6.03
2018-09-13T14:08:19.361Z,5.63
2018-09-13T14:10:47.944Z,5.43
2018-09-13T14:13:16.510Z,6.20
2018-09-13T14:15:45.056Z,6.30
2018-09-13T14:18:13.637Z,5.33
2018-09-13T14:20:42.289Z,5.67
2018-09-13T14:23:11.349Z,5.60
2018-09-13T14:25:39.909Z,5.97
2018-09-13T14:28:08.522Z,6.47
2018-09-13T14:30:42.654Z,6.10
2018-09-13T14:33:11.657Z,6.33
2018-09-13T14:35:40.317Z,7.33
2018-09-13T14:38:08.804Z,7.00
2018-09-13T14:40:37.369Z,6.80
2018-09-13T14:43:06.593Z,6.17
2018-09-13T14:45:35.143Z,6.63
2018-09-13T14:48:03.745Z,6.60
2018-09-13T14:50:32.301Z,6.83
2018-09-13T14:53:00.881Z,7.43
2018-09-13T14:55:29.578Z,6.77
2018-09-13T14:57:58.589Z,6.97
2018-09-13T15:00:27.145Z,6.80
2018-09-13T15:02:55.758Z,7.40
2018-09-13T15:05:24.362Z,7.30
2018-09-13T15:07:52.945Z,7.93
2018-09-13T15:10:21.531Z,7.40
2018-09-13T15:12:50.327Z,8.00
2018-09-13T15:15:18.822Z,7.73
2018-09-13T15:17:47.389Z,7.83
2018-09-13T15:20:15.925Z,7.90
2018-09-13T15:22:44.503Z,10.27
2018-09-13T15:25:13.073Z,9.67
2018-09-13T15:27:41.643Z,10.50
2018-09-13T15:30:10.205Z,11.17
2018-09-13T15:32:38.782Z,11.37
2018-09-13T15:35:07.369Z,11.13
2018-09-13T15:37:35.946Z,12.07
2018-09-13T15:40:04.553Z,11.53
2018-09-13T15:42:33.126Z,11.63
2018-09-13T15:45:01.672Z,11.47
2018-09-13T15:47:30.257Z,11.47
2018-09-13T15:49:58.817Z,10.90
2018-09-13T15:52:27.482Z,9.67
2018-09-13T15:54:56.027Z,10.23
2018-09-13T15:57:24.589Z,9.13
2018-09-13T15:59:53.135Z,9.23
2018-09-13T16:02:21.771Z,10.20
2018-09-13T16:04:50.321Z,10.13
2018-09-13T16:07:18.945Z,10.20
2018-09-13T16:09:47.519Z,9.27
2018-09-13T16:12:16.122Z,10.47
2018-09-13T16:14:44.672Z,11.33
2018-09-13T16:17:13.248Z,12.10
2018-09-13T16:19:41.790Z,10.30
2018-09-13T16:22:10.337Z,9.53
2018-09-13T16:24:38.922Z,9.73
2018-09-13T16:27:07.494Z,9.80
2018-09-13T16:29:36.073Z,9.80
2018-09-13T16:32:04.619Z,9.83
2018-09-13T16:34:33.754Z,10.13
2018-09-13T16:37:08.212Z,9.43
2018-09-13T16:39:42.232Z,9.63
2018-09-13T16:42:23.043Z,10.70
2018-09-13T16:44:54.333Z,10.50
2018-09-13T16:47:31.123Z,10.77
2018-09-13T16:50:02.098Z,11.67
2018-09-13T16:52:31.581Z,11.57
2018-09-13T16:55:00.456Z,12.17
2018-09-13T16:57:29.102Z,11.50
2018-09-13T16:59:57.653Z,11.60
2018-09-13T17:02:26.221Z,12.17
2018-09-13T17:04:54.909Z,12.70
2018-09-13T17:07:23.532Z,11.77
2018-09-13T17:09:52.308Z,11.87
2018-09-13T17:12:20.850Z,11.13
2018-09-13T17:14:49.446Z,11.87
2018-09-13T17:17:17.961Z,11.43
2018-09-13T17:19:46.487Z,11.60
2018-09-13T17:22:15.084Z,11.47
2018-09-13T17:24:43.705Z,11.10
2018-09-13T17:27:12.260Z,11.53
2018-09-13T17:29:40.791Z,10.83
2018-09-13T17:32:09.294Z,11.93
2018-09-13T17:34:37.833Z,11.83
2018-09-13T17:37:07.013Z,12.50
2018-09-13T17:39:35.559Z,10.87
2018-09-13T17:42:04.077Z,12.10
2018-09-13T17:44:32.630Z,11.87
2018-09-13T17:47:01.161Z,12.87
2018-09-13T17:49:29.748Z,13.57
2018-09-13T17:51:58.541Z,13.00
2018-09-13T17:54:27.206Z,13.87
2018-09-13T17:56:55.864Z,13.33
2018-09-13T17:59:24.570Z,13.67
2018-09-13T18:01:53.124Z,13.17
2018-09-13T18:04:22.005Z,13.93
2018-09-13T18:06:50.542Z,14.30
2018-09-13T18:09:19.082Z,13.67
2018-09-13T18:11:47.646Z,13.30
2018-09-13T18:14:16.305Z,13.87
2018-09-13T18:16:44.962Z,13.20
2018-09-13T18:19:13.579Z,13.37
2018-09-13T18:21:42.694Z,13.87
2018-09-13T18:24:11.404Z,13.37
2018-09-13T18:26:39.953Z,13.10
2018-09-13T18:29:08.509Z,13.17
2018-09-13T18:31:37.062Z,13.20
2018-09-13T18:34:05.669Z,14.60
2018-09-13T18:36:34.230Z,14.10
2018-09-13T18:39:02.838Z,14.57
2018-09-13T18:41:31.418Z,13.80
2018-09-13T18:43:59.994Z,15.30
2018-09-13T18:46:28.590Z,15.00
2018-09-13T18:48:57.145Z,15.57
2018-09-13T18:51:25.736Z,15.57
2018-09-13T18:53:54.466Z,15.63
2018-09-13T18:56:23.011Z,15.53
2018-09-13T18:58:51.610Z,17.87
2018-09-13T19:01:20.210Z,16.30
2018-09-13T19:03:48.758Z,17.43
2018-09-13T19:06:17.329Z,17.37
2018-09-13T19:08:45.889Z,16.83
2018-09-13T19:11:14.504Z,17.87
2018-09-13T19:13:42.984Z,17.60
2018-09-13T19:16:11.558Z,17.97
2018-09-13T19:18:40.101Z,18.37
2018-09-13T19:21:08.648Z,18.13
2018-09-13T19:23:37.179Z,17.07
2018-09-13T19:26:05.801Z,16.13
2018-09-13T19:28:34.339Z,14.77
2018-09-13T19:31:02.965Z,14.23
2018-09-13T19:33:31.462Z,15.30
2018-09-13T19:36:00.081Z,15.40
2018-09-13T19:38:28.647Z,15.93
2018-09-13T19:40:57.247Z,15.83
2018-09-13T19:43:25.822Z,16.37
2018-09-13T19:45:54.376Z,15.90
2018-09-13T19:48:22.870Z,17.83
2018-09-13T19:50:51.515Z,16.20
2018-09-13T19:53:20.010Z,17.17
2018-09-13T19:55:48.574Z,16.57
2018-09-13T19:58:17.085Z,17.60
2018-09-13T20:00:45.625Z,17.57
2018-09-13T20:03:14.140Z,16.57
2018-09-13T20:05:42.697Z,18.67
2018-09-13T20:08:11.188Z,16.20
2018-09-13T20:10:39.747Z,16.70
2018-09-13T20:13:08.277Z,17.33
2018-09-13T20:15:36.816Z,17.97
2018-09-13T20:18:05.586Z,17.80
2018-09-13T20:20:34.186Z,18.70
2018-09-13T20:23:02.787Z,18.87
2018-09-13T20:25:31.276Z,19.80
2018-09-13T20:27:59.840Z,19.23
2018-09-13T20:30:28.376Z,19.10
2018-09-13T20:32:56.893Z,18.03
2018-09-13T20:35:25.479Z,19.37
2018-09-13T20:37:53.962Z,18.07
2018-09-13T20:40:22.480Z,18.63
2018-09-13T20:42:51.041Z,19.33
2018-09-13T20:45:19.554Z,19.70
2018-09-13T20:47:48.091Z,19.53
2018-09-13T20:50:16.600Z,22.23
2018-09-13T20:52:45.174Z,44.97
2018-09-13T20:55:13.749Z,25.93
2018-09-13T20:57:42.287Z,25.57
2018-09-13T21:00:14.249Z,25.63
2018-09-13T21:02:42.763Z,25.00
2018-09-13T21:05:11.262Z,27.10
2018-09-13T21:07:39.805Z,27.37
2018-09-13T21:10:08.798Z,25.40
2018-09-13T21:12:37.651Z,24.37
2018-09-13T21:15:06.941Z,31.77
2018-09-13T21:17:35.845Z,27.97
2018-09-13T21:20:04.662Z,24.70
2018-09-13T21:22:33.657Z,24.77
2018-09-13T21:25:02.184Z,25.97
2018-09-13T21:27:30.741Z,26.87
2018-09-13T21:29:59.278Z,24.60
2018-09-13T21:32:28.181Z,26.13
2018-09-13T21:34:56.733Z,27.70
2018-09-13T21:37:25.285Z,27.03
2018-09-13T21:39:53.822Z,28.87
2018-09-13T21:42:22.375Z,29.13
2018-09-13T21:44:50.905Z,30.30
2018-09-13T21:47:19.473Z,30.63
2018-09-13T21:49:48.017Z,28.43
2018-09-13T21:52:16.585Z,28.17
2018-09-13T21:54:45.117Z,29.47
2018-09-13T21:57:13.682Z,28.70
2018-09-13T21:59:42.242Z,29.83
2018-09-13T22:02:11.318Z,30.00
2018-09-13T22:04:39.909Z,31.07
2018-09-13T22:07:08.576Z,31.13
2018-09-13T22:09:37.112Z,29.70
2018-09-13T22:12:05.673Z,31.97
2018-09-13T22:14:34.181Z,30.87
2018-09-13T22:17:02.732Z,31.17
2018-09-13T22:19:31.237Z,31.13
2018-09-13T22:21:59.759Z,30.97
2018-09-13T22:24:28.255Z,30.63
2018-09-13T22:26:56.778Z,29.97
2018-09-13T22:29:25.309Z,31.50
2018-09-13T22:31:53.833Z,30.83
2018-09-13T22:34:22.393Z,29.47
2018-09-13T22:36:51.611Z,30.30
2018-09-13T22:39:20.118Z,30.80
2018-09-13T22:41:48.646Z,30.33
2018-09-13T22:44:17.132Z,29.40
2018-09-13T22:46:45.667Z,30.70
2018-09-13T22:49:14.281Z,31.20
2018-09-13T22:51:42.902Z,30.87
2018-09-13T22:54:11.400Z,31.13
2018-09-13T22:56:39.949Z,32.37
2018-09-13T22:59:08.453Z,31.20
2018-09-13T23:01:36.992Z,31.10
2018-09-13T23:04:05.546Z,30.83
2018-09-13T23:06:34.085Z,30.33
2018-09-13T23:09:02.656Z,30.70
2018-09-13T23:11:31.237Z,29.57
2018-09-13T23:13:59.784Z,30.47
2018-09-13T23:16:28.336Z,29.13
2018-09-13T23:18:56.922Z,28.00
2018-09-13T23:21:25.518Z,32.90
2018-09-13T23:23:54.097Z,33.50
2018-09-13T23:26:22.628Z,32.97
2018-09-13T23:28:51.253Z,34.27
2018-09-13T23:31:19.813Z,33.27
2018-09-13T23:33:48.385Z,34.57
2018-09-13T23:36:16.917Z,35.03
2018-09-13T23:38:45.525Z,34.00
2018-09-13T23:41:14.081Z,34.53
2018-09-13T23:43:42.631Z,34.57
2018-09-13T23:46:11.242Z,33.03
2018-09-13T23:48:39.745Z,33.83
2018-09-13T23:51:08.567Z,32.53
2018-09-13T23:53:37.193Z,33.07
2018-09-13T23:56:05.771Z,30.90
2018-09-13T23:58:34.325Z,30.57
